sensor_id;sensor_type;location;lat;lon;timestamp;P1;durP1;ratioP1;P2;durP2;ratioP2
545;SDS011;259;53.304;9.816;2024-02-23T00:00:38;1.97;;;1.17;;
545;SDS011;259;53.304;9.816;2024-02-23T00:03:04;1.00;;;0.87;;
545;SDS011;259;53.304;9.816;2024-02-23T00:05:30;1.10;;;1.00;;
545;SDS011;259;53.304;9.816;2024-02-23T00:07:56;1.23;;;1.07;;
545;SDS011;259;53.304;9.816;2024-02-23T00:10:22;0.90;;;0.90;;
545;SDS011;259;53.304;9.816;2024-02-23T00:12:48;1.00;;;1.00;;
545;SDS011;259;53.304;9.816;2024-02-23T00:15:13;1.17;;;1.10;;
545;SDS011;259;53.304;9.816;2024-02-23T00:17:39;0.87;;;0.80;;
545;SDS011;259;53.304;9.816;2024-02-23T00:20:05;1.03;;;0.93;;
545;SDS011;259;53.304;9.816;2024-02-23T00:22:35;0.87;;;0.80;;
545;SDS011;259;53.304;9.816;2024-02-23T00:25:01;0.80;;;0.80;;
545;SDS011;259;53.304;9.816;2024-02-23T00:27:27;1.10;;;1.00;;
545;SDS011;259;53.304;9.816;2024-02-23T00:29:52;0.70;;;0.70;;
545;SDS011;259;53.304;9.816;2024-02-23T00:32:18;1.37;;;1.27;;
545;SDS011;259;53.304;9.816;2024-02-23T00:34:44;2.10;;;0.83;;
545;SDS011;259;53.304;9.816;2024-02-23T00:37:09;0.90;;;0.80;;
545;SDS011;259;53.304;9.816;2024-02-23T00:39:35;0.73;;;0.73;;
545;SDS011;259;53.304;9.816;2024-02-23T00:42:02;1.10;;;0.90;;
545;SDS011;259;53.304;9.816;2024-02-23T00:44:28;0.90;;;0.73;;
545;SDS011;259;53.304;9.816;2024-02-23T00:46:54;0.80;;;0.80;;
545;SDS011;259;53.304;9.816;2024-02-23T00:49:20;1.13;;;0.83;;
545;SDS011;259;53.304;9.816;2024-02-23T00:51:45;3.00;;;0.90;;
545;SDS011;259;53.304;9.816;2024-02-23T00:54:11;1.27;;;0.80;;
545;SDS011;259;53.304;9.816;2024-02-23T00:56:37;1.43;;;1.00;;
545;SDS011;259;53.304;9.816;2024-02-23T00:59:02;1.37;;;0.73;;
545;SDS011;259;53.304;9.816;2024-02-23T01:01:28;1.07;;;0.87;;
545;SDS011;259;53.304;9.816;2024-02-23T01:03:54;0.90;;;0.90;;
545;SDS011;259;53.304;9.816;2024-02-23T01:06:19;0.80;;;0.80;;
545;SDS011;259;53.304;9.816;2024-02-23T01:08:45;2.20;;;0.73;;
545;SDS011;259;53.304;9.816;2024-02-23T01:11:11;1.00;;;0.90;;
545;SDS011;259;53.304;9.816;2024-02-23T01:13:36;0.73;;;0.70;;
545;SDS011;259;53.304;9.816;2024-02-23T01:16:02;1.47;;;0.70;;
545;SDS011;259;53.304;9.816;2024-02-23T01:18:28;1.43;;;0.60;;
545;SDS011;259;53.304;9.816;2024-02-23T01:20:55;1.77;;;0.83;;
545;SDS011;259;53.304;9.816;2024-02-23T01:23:22;1.57;;;0.70;;
545;SDS011;259;53.304;9.816;2024-02-23T01:25:48;0.80;;;0.80;;
545;SDS011;259;53.304;9.816;2024-02-23T01:28:13;1.30;;;0.73;;
545;SDS011;259;53.304;9.816;2024-02-23T01:30:39;1.47;;;0.60;;
545;SDS011;259;53.304;9.816;2024-02-23T01:33:05;1.70;;;0.60;;
545;SDS011;259;53.304;9.816;2024-02-23T01:35:30;0.70;;;0.70;;
545;SDS011;259;53.304;9.816;2024-02-23T01:37:56;1.20;;;0.67;;
545;SDS011;259;53.304;9.816;2024-02-23T01:40:22;0.50;;;0.43;;
545;SDS011;259;53.304;9.816;2024-02-23T01:42:47;0.80;;;0.80;;
545;SDS011;259;53.304;9.816;2024-02-23T01:45:13;0.97;;;0.60;;
545;SDS011;259;53.304;9.816;2024-02-23T01:47:39;1.00;;;0.80;;
545;SDS011;259;53.304;9.816;2024-02-23T01:50:06;1.03;;;0.77;;
545;SDS011;259;53.304;9.816;2024-02-23T01:52:34;0.80;;;0.50;;
545;SDS011;259;53.304;9.816;2024-02-23T01:55:00;0.70;;;0.60;;
545;SDS011;259;53.304;9.816;2024-02-23T01:57:26;0.83;;;0.60;;
545;SDS011;259;53.304;9.816;2024-02-23T01:59:52;0.63;;;0.63;;
545;SDS011;259;53.304;9.816;2024-02-23T02:02:18;0.70;;;0.60;;
545;SDS011;259;53.304;9.816;2024-02-23T02:04:44;0.87;;;0.70;;
545;SDS011;259;53.304;9.816;2024-02-23T02:07:10;0.90;;;0.60;;
545;SDS011;259;53.304;9.816;2024-02-23T02:09:36;1.47;;;0.63;;
545;SDS011;259;53.304;9.816;2024-02-23T02:12:01;0.60;;;0.50;;
545;SDS011;259;53.304;9.816;2024-02-23T02:14:27;0.60;;;0.40;;
545;SDS011;259;53.304;9.816;2024-02-23T02:16:56;0.60;;;0.50;;
545;SDS011;259;53.304;9.816;2024-02-23T02:19:24;1.07;;;0.50;;
545;SDS011;259;53.304;9.816;2024-02-23T02:21:50;0.70;;;0.50;;
545;SDS011;259;53.304;9.816;2024-02-23T02:24:16;0.60;;;0.40;;
545;SDS011;259;53.304;9.816;2024-02-23T02:26:42;0.70;;;0.50;;
545;SDS011;259;53.304;9.816;2024-02-23T02:29:10;0.80;;;0.60;;
545;SDS011;259;53.304;9.816;2024-02-23T02:31:36;0.60;;;0.53;;
545;SDS011;259;53.304;9.816;2024-02-23T02:34:02;0.67;;;0.50;;
545;SDS011;259;53.304;9.816;2024-02-23T02:36:29;0.50;;;0.40;;
545;SDS011;259;53.304;9.816;2024-02-23T02:38:55;0.50;;;0.40;;
545;SDS011;259;53.304;9.816;2024-02-23T02:41:21;0.60;;;0.60;;
545;SDS011;259;53.304;9.816;2024-02-23T02:43:49;1.00;;;0.50;;
545;SDS011;259;53.304;9.816;2024-02-23T02:46:14;1.07;;;0.50;;
545;SDS011;259;53.304;9.816;2024-02-23T02:48:40;0.60;;;0.40;;
545;SDS011;259;53.304;9.816;2024-02-23T02:51:06;0.80;;;0.47;;
545;SDS011;259;53.304;9.816;2024-02-23T02:53:32;0.63;;;0.47;;
545;SDS011;259;53.304;9.816;2024-02-23T02:55:58;0.60;;;0.50;;
545;SDS011;259;53.304;9.816;2024-02-23T02:58:23;0.50;;;0.43;;
545;SDS011;259;53.304;9.816;2024-02-23T03:00:49;0.50;;;0.40;;
545;SDS011;259;53.304;9.816;2024-02-23T03:03:14;0.77;;;0.60;;
545;SDS011;259;53.304;9.816;2024-02-23T03:05:40;0.50;;;0.40;;
545;SDS011;259;53.304;9.816;2024-02-23T03:08:06;0.70;;;0.50;;
545;SDS011;259;53.304;9.816;2024-02-23T03:10:32;1.30;;;1.10;;
545;SDS011;259;53.304;9.816;2024-02-23T03:12:57;0.50;;;0.50;;
545;SDS011;259;53.304;9.816;2024-02-23T03:15:23;0.60;;;0.40;;
545;SDS011;259;53.304;9.816;2024-02-23T03:17:49;0.50;;;0.40;;
545;SDS011;259;53.304;9.816;2024-02-23T03:20:15;0.50;;;0.40;;
545;SDS011;259;53.304;9.816;2024-02-23T03:22:41;0.70;;;0.50;;
545;SDS011;259;53.304;9.816;2024-02-23T03:25:06;0.50;;;0.40;;
545;SDS011;259;53.304;9.816;2024-02-23T03:27:33;0.60;;;0.60;;
545;SDS011;259;53.304;9.816;2024-02-23T03:30:03;0.50;;;0.40;;
545;SDS011;259;53.304;9.816;2024-02-23T03:32:32;1.60;;;0.50;;
545;SDS011;259;53.304;9.816;2024-02-23T03:35:05;0.60;;;0.43;;
545;SDS011;259;53.304;9.816;2024-02-23T03:37:33;0.83;;;0.50;;
545;SDS011;259;53.304;9.816;2024-02-23T03:39:59;0.57;;;0.40;;
545;SDS011;259;53.304;9.816;2024-02-23T03:42:25;0.70;;;0.50;;
545;SDS011;259;53.304;9.816;2024-02-23T03:44:52;0.60;;;0.50;;
545;SDS011;259;53.304;9.816;2024-02-23T03:47:18;0.60;;;0.40;;
545;SDS011;259;53.304;9.816;2024-02-23T03:49:44;0.60;;;0.40;;
545;SDS011;259;53.304;9.816;2024-02-23T03:52:09;0.63;;;0.50;;
545;SDS011;259;53.304;9.816;2024-02-23T03:54:35;0.60;;;0.40;;
545;SDS011;259;53.304;9.816;2024-02-23T03:57:00;0.50;;;0.40;;
545;SDS011;259;53.304;9.816;2024-02-23T03:59:27;0.60;;;0.40;;
545;SDS011;259;53.304;9.816;2024-02-23T04:01:53;0.70;;;0.50;;
545;SDS011;259;53.304;9.816;2024-02-23T04:04:19;0.50;;;0.40;;
545;SDS011;259;53.304;9.816;2024-02-23T04:06:44;0.60;;;0.50;;
545;SDS011;259;53.304;9.816;2024-02-23T04:09:10;0.60;;;0.40;;
545;SDS011;259;53.304;9.816;2024-02-23T04:11:36;0.50;;;0.40;;
545;SDS011;259;53.304;9.816;2024-02-23T04:14:01;0.60;;;0.40;;
545;SDS011;259;53.304;9.816;2024-02-23T04:16:27;0.50;;;0.40;;
545;SDS011;259;53.304;9.816;2024-02-23T04:18:53;0.50;;;0.40;;
545;SDS011;259;53.304;9.816;2024-02-23T04:21:19;0.50;;;0.30;;
545;SDS011;259;53.304;9.816;2024-02-23T04:23:45;0.50;;;0.40;;
545;SDS011;259;53.304;9.816;2024-02-23T04:26:11;0.60;;;0.50;;
545;SDS011;259;53.304;9.816;2024-02-23T04:28:40;0.60;;;0.40;;
545;SDS011;259;53.304;9.816;2024-02-23T04:31:07;0.50;;;0.40;;
545;SDS011;259;53.304;9.816;2024-02-23T04:33:34;0.57;;;0.50;;
545;SDS011;259;53.304;9.816;2024-02-23T04:36:01;0.60;;;0.43;;
545;SDS011;259;53.304;9.816;2024-02-23T04:38:28;1.00;;;0.47;;
545;SDS011;259;53.304;9.816;2024-02-23T04:40:54;0.60;;;0.53;;
545;SDS011;259;53.304;9.816;2024-02-23T04:43:21;0.60;;;0.40;;
545;SDS011;259;53.304;9.816;2024-02-23T04:45:48;1.27;;;0.40;;
545;SDS011;259;53.304;9.816;2024-02-23T04:48:13;0.60;;;0.40;;
545;SDS011;259;53.304;9.816;2024-02-23T04:50:39;0.60;;;0.40;;
545;SDS011;259;53.304;9.816;2024-02-23T04:53:05;0.60;;;0.43;;
545;SDS011;259;53.304;9.816;2024-02-23T04:55:30;1.17;;;0.50;;
545;SDS011;259;53.304;9.816;2024-02-23T04:57:56;0.60;;;0.50;;
545;SDS011;259;53.304;9.816;2024-02-23T05:00:22;0.70;;;0.50;;
545;SDS011;259;53.304;9.816;2024-02-23T05:02:48;0.67;;;0.50;;
545;SDS011;259;53.304;9.816;2024-02-23T05:05:14;0.70;;;0.60;;
545;SDS011;259;53.304;9.816;2024-02-23T05:07:40;1.27;;;0.53;;
545;SDS011;259;53.304;9.816;2024-02-23T05:10:06;0.60;;;0.50;;
545;SDS011;259;53.304;9.816;2024-02-23T05:12:32;0.80;;;0.60;;
545;SDS011;259;53.304;9.816;2024-02-23T05:14:57;0.80;;;0.57;;
545;SDS011;259;53.304;9.816;2024-02-23T05:17:23;0.60;;;0.43;;
545;SDS011;259;53.304;9.816;2024-02-23T05:19:49;0.70;;;0.50;;
545;SDS011;259;53.304;9.816;2024-02-23T05:22:14;1.37;;;0.67;;
545;SDS011;259;53.304;9.816;2024-02-23T05:24:40;0.80;;;0.50;;
545;SDS011;259;53.304;9.816;2024-02-23T05:27:06;0.70;;;0.50;;
545;SDS011;259;53.304;9.816;2024-02-23T05:29:31;0.87;;;0.67;;
545;SDS011;259;53.304;9.816;2024-02-23T05:31:57;1.00;;;0.60;;
545;SDS011;259;53.304;9.816;2024-02-23T05:34:23;0.67;;;0.60;;
545;SDS011;259;53.304;9.816;2024-02-23T05:36:48;0.60;;;0.50;;
545;SDS011;259;53.304;9.816;2024-02-23T05:39:16;0.57;;;0.50;;
545;SDS011;259;53.304;9.816;2024-02-23T05:41:42;1.00;;;0.63;;
545;SDS011;259;53.304;9.816;2024-02-23T05:44:08;0.50;;;0.40;;
545;SDS011;259;53.304;9.816;2024-02-23T05:46:34;0.60;;;0.60;;
545;SDS011;259;53.304;9.816;2024-02-23T05:49:01;0.60;;;0.60;;
545;SDS011;259;53.304;9.816;2024-02-23T05:51:28;0.70;;;0.60;;
545;SDS011;259;53.304;9.816;2024-02-23T05:53:54;0.60;;;0.57;;
545;SDS011;259;53.304;9.816;2024-02-23T05:56:20;1.37;;;0.73;;
545;SDS011;259;53.304;9.816;2024-02-23T05:58:46;0.70;;;0.60;;
545;SDS011;259;53.304;9.816;2024-02-23T06:01:12;0.87;;;0.53;;
545;SDS011;259;53.304;9.816;2024-02-23T06:03:37;1.40;;;0.70;;
545;SDS011;259;53.304;9.816;2024-02-23T06:06:06;0.80;;;0.60;;
545;SDS011;259;53.304;9.816;2024-02-23T06:08:33;1.00;;;0.67;;
545;SDS011;259;53.304;9.816;2024-02-23T06:10:59;0.60;;;0.60;;
545;SDS011;259;53.304;9.816;2024-02-23T06:13:25;0.87;;;0.50;;
545;SDS011;259;53.304;9.816;2024-02-23T06:15:51;1.17;;;0.80;;
545;SDS011;259;53.304;9.816;2024-02-23T06:18:17;2.00;;;0.93;;
545;SDS011;259;53.304;9.816;2024-02-23T06:20:43;0.73;;;0.73;;
545;SDS011;259;53.304;9.816;2024-02-23T06:23:08;0.80;;;0.50;;
545;SDS011;259;53.304;9.816;2024-02-23T06:25:34;0.73;;;0.60;;
545;SDS011;259;53.304;9.816;2024-02-23T06:28:00;1.30;;;1.00;;
545;SDS011;259;53.304;9.816;2024-02-23T06:30:25;0.70;;;0.63;;
545;SDS011;259;53.304;9.816;2024-02-23T06:32:51;0.80;;;0.57;;
545;SDS011;259;53.304;9.816;2024-02-23T06:35:17;0.60;;;0.50;;
545;SDS011;259;53.304;9.816;2024-02-23T06:37:43;0.73;;;0.73;;
545;SDS011;259;53.304;9.816;2024-02-23T06:40:09;0.70;;;0.63;;
545;SDS011;259;53.304;9.816;2024-02-23T06:42:35;1.87;;;0.67;;
545;SDS011;259;53.304;9.816;2024-02-23T06:45:01;1.00;;;0.70;;
545;SDS011;259;53.304;9.816;2024-02-23T06:47:26;0.80;;;0.57;;
545;SDS011;259;53.304;9.816;2024-02-23T06:49:52;1.27;;;0.70;;
545;SDS011;259;53.304;9.816;2024-02-23T06:52:18;0.90;;;0.90;;
545;SDS011;259;53.304;9.816;2024-02-23T06:54:43;0.80;;;0.80;;
545;SDS011;259;53.304;9.816;2024-02-23T06:57:10;0.67;;;0.53;;
545;SDS011;259;53.304;9.816;2024-02-23T06:59:35;0.63;;;0.63;;
545;SDS011;259;53.304;9.816;2024-02-23T07:02:01;0.63;;;0.60;;
545;SDS011;259;53.304;9.816;2024-02-23T07:04:29;0.60;;;0.60;;
545;SDS011;259;53.304;9.816;2024-02-23T07:06:55;0.97;;;0.87;;
545;SDS011;259;53.304;9.816;2024-02-23T07:09:20;1.67;;;1.13;;
545;SDS011;259;53.304;9.816;2024-02-23T07:11:46;0.70;;;0.70;;
545;SDS011;259;53.304;9.816;2024-02-23T07:14:12;0.63;;;0.60;;
545;SDS011;259;53.304;9.816;2024-02-23T07:16:39;1.20;;;0.67;;
545;SDS011;259;53.304;9.816;2024-02-23T07:19:06;0.87;;;0.83;;
545;SDS011;259;53.304;9.816;2024-02-23T07:21:32;1.20;;;0.83;;
545;SDS011;259;53.304;9.816;2024-02-23T07:23:58;0.93;;;0.70;;
545;SDS011;259;53.304;9.816;2024-02-23T07:26:24;1.47;;;0.90;;
545;SDS011;259;53.304;9.816;2024-02-23T07:28:53;0.70;;;0.50;;
545;SDS011;259;53.304;9.816;2024-02-23T07:31:19;1.10;;;0.77;;
545;SDS011;259;53.304;9.816;2024-02-23T07:33:44;1.27;;;0.73;;
545;SDS011;259;53.304;9.816;2024-02-23T07:36:13;1.30;;;0.90;;
545;SDS011;259;53.304;9.816;2024-02-23T07:38:42;1.30;;;0.67;;
545;SDS011;259;53.304;9.816;2024-02-23T07:41:09;1.80;;;0.70;;
545;SDS011;259;53.304;9.816;2024-02-23T07:43:38;2.60;;;1.10;;
545;SDS011;259;53.304;9.816;2024-02-23T07:46:04;4.27;;;2.33;;
545;SDS011;259;53.304;9.816;2024-02-23T07:48:33;4.63;;;4.20;;
545;SDS011;259;53.304;9.816;2024-02-23T07:51:04;5.23;;;3.87;;
545;SDS011;259;53.304;9.816;2024-02-23T07:53:30;6.93;;;3.37;;
545;SDS011;259;53.304;9.816;2024-02-23T07:55:56;8.50;;;4.07;;
545;SDS011;259;53.304;9.816;2024-02-23T07:58:26;10.10;;;3.33;;
545;SDS011;259;53.304;9.816;2024-02-23T08:00:52;3.57;;;2.70;;
545;SDS011;259;53.304;9.816;2024-02-23T08:03:18;2.80;;;2.60;;
545;SDS011;259;53.304;9.816;2024-02-23T08:05:44;3.00;;;2.70;;
545;SDS011;259;53.304;9.816;2024-02-23T08:08:10;2.67;;;2.20;;
545;SDS011;259;53.304;9.816;2024-02-23T08:10:36;6.30;;;2.60;;
545;SDS011;259;53.304;9.816;2024-02-23T08:13:01;5.20;;;2.07;;
545;SDS011;259;53.304;9.816;2024-02-23T08:15:27;3.23;;;1.60;;
545;SDS011;259;53.304;9.816;2024-02-23T08:17:53;2.70;;;1.80;;
545;SDS011;259;53.304;9.816;2024-02-23T08:20:19;2.80;;;1.60;;
545;SDS011;259;53.304;9.816;2024-02-23T08:22:45;3.30;;;1.47;;
545;SDS011;259;53.304;9.816;2024-02-23T08:25:10;1.97;;;1.33;;
545;SDS011;259;53.304;9.816;2024-02-23T08:27:36;1.63;;;1.53;;
545;SDS011;259;53.304;9.816;2024-02-23T08:30:02;1.30;;;1.20;;
545;SDS011;259;53.304;9.816;2024-02-23T08:32:28;1.40;;;1.03;;
545;SDS011;259;53.304;9.816;2024-02-23T08:34:54;2.00;;;1.50;;
545;SDS011;259;53.304;9.816;2024-02-23T08:37:24;1.63;;;1.10;;
545;SDS011;259;53.304;9.816;2024-02-23T08:39:51;3.10;;;1.30;;
545;SDS011;259;53.304;9.816;2024-02-23T08:42:17;1.33;;;0.90;;
545;SDS011;259;53.304;9.816;2024-02-23T08:44:43;1.60;;;0.97;;
545;SDS011;259;53.304;9.816;2024-02-23T08:47:08;2.63;;;1.27;;
545;SDS011;259;53.304;9.816;2024-02-23T08:49:34;2.10;;;1.07;;
545;SDS011;259;53.304;9.816;2024-02-23T08:52:00;2.60;;;1.27;;
545;SDS011;259;53.304;9.816;2024-02-23T08:54:27;2.53;;;1.67;;
545;SDS011;259;53.304;9.816;2024-02-23T08:56:53;1.23;;;1.00;;
545;SDS011;259;53.304;9.816;2024-02-23T08:59:18;2.67;;;1.00;;
545;SDS011;259;53.304;9.816;2024-02-23T09:01:44;2.37;;;0.90;;
545;SDS011;259;53.304;9.816;2024-02-23T09:04:11;2.50;;;1.20;;
545;SDS011;259;53.304;9.816;2024-02-23T09:06:38;2.17;;;1.30;;
545;SDS011;259;53.304;9.816;2024-02-23T09:09:03;2.63;;;1.60;;
545;SDS011;259;53.304;9.816;2024-02-23T09:11:29;2.70;;;1.23;;
545;SDS011;259;53.304;9.816;2024-02-23T09:13:55;2.63;;;0.93;;
545;SDS011;259;53.304;9.816;2024-02-23T09:16:20;1.73;;;0.87;;
545;SDS011;259;53.304;9.816;2024-02-23T09:18:49;2.80;;;1.10;;
545;SDS011;259;53.304;9.816;2024-02-23T09:21:16;3.23;;;1.37;;
545;SDS011;259;53.304;9.816;2024-02-23T09:23:41;2.37;;;0.93;;
545;SDS011;259;53.304;9.816;2024-02-23T09:26:10;2.80;;;1.23;;
545;SDS011;259;53.304;9.816;2024-02-23T09:28:36;1.73;;;1.00;;
545;SDS011;259;53.304;9.816;2024-02-23T09:31:02;1.77;;;0.90;;
545;SDS011;259;53.304;9.816;2024-02-23T09:33:29;1.47;;;1.00;;
545;SDS011;259;53.304;9.816;2024-02-23T09:35:56;3.23;;;1.37;;
545;SDS011;259;53.304;9.816;2024-02-23T09:38:22;2.40;;;1.30;;
545;SDS011;259;53.304;9.816;2024-02-23T09:40:51;1.07;;;0.80;;
545;SDS011;259;53.304;9.816;2024-02-23T09:43:17;1.00;;;0.80;;
545;SDS011;259;53.304;9.816;2024-02-23T09:45:50;1.60;;;0.80;;
545;SDS011;259;53.304;9.816;2024-02-23T09:48:17;5.07;;;0.93;;
545;SDS011;259;53.304;9.816;2024-02-23T09:50:44;1.93;;;0.87;;
545;SDS011;259;53.304;9.816;2024-02-23T09:53:12;1.33;;;0.70;;
545;SDS011;259;53.304;9.816;2024-02-23T09:55:39;2.20;;;0.90;;
545;SDS011;259;53.304;9.816;2024-02-23T09:58:04;1.33;;;0.73;;
545;SDS011;259;53.304;9.816;2024-02-23T10:00:34;3.40;;;1.00;;
545;SDS011;259;53.304;9.816;2024-02-23T10:03:02;3.57;;;1.20;;
545;SDS011;259;53.304;9.816;2024-02-23T10:05:29;1.37;;;0.70;;
545;SDS011;259;53.304;9.816;2024-02-23T10:07:58;1.87;;;0.70;;
545;SDS011;259;53.304;9.816;2024-02-23T10:10:33;5.10;;;1.37;;
545;SDS011;259;53.304;9.816;2024-02-23T10:12:59;6.13;;;0.90;;
545;SDS011;259;53.304;9.816;2024-02-23T10:15:28;12.50;;;2.50;;
545;SDS011;259;53.304;9.816;2024-02-23T10:17:55;10.23;;;1.90;;
545;SDS011;259;53.304;9.816;2024-02-23T10:20:21;9.40;;;1.67;;
545;SDS011;259;53.304;9.816;2024-02-23T10:22:46;16.30;;;2.97;;
545;SDS011;259;53.304;9.816;2024-02-23T10:25:12;6.70;;;1.93;;
545;SDS011;259;53.304;9.816;2024-02-23T10:27:40;5.97;;;1.70;;
545;SDS011;259;53.304;9.816;2024-02-23T10:30:07;6.63;;;1.63;;
545;SDS011;259;53.304;9.816;2024-02-23T10:32:36;5.93;;;1.50;;
545;SDS011;259;53.304;9.816;2024-02-23T10:35:05;8.33;;;1.43;;
545;SDS011;259;53.304;9.816;2024-02-23T10:37:44;9.17;;;1.63;;
545;SDS011;259;53.304;9.816;2024-02-23T10:40:17;4.30;;;1.40;;
545;SDS011;259;53.304;9.816;2024-02-23T10:42:44;6.50;;;1.87;;
545;SDS011;259;53.304;9.816;2024-02-23T10:45:16;4.90;;;1.53;;
545;SDS011;259;53.304;9.816;2024-02-23T10:47:44;6.03;;;1.20;;
545;SDS011;259;53.304;9.816;2024-02-23T10:50:11;4.40;;;1.43;;
545;SDS011;259;53.304;9.816;2024-02-23T10:52:43;3.47;;;1.17;;
545;SDS011;259;53.304;9.816;2024-02-23T10:55:09;6.37;;;1.60;;
545;SDS011;259;53.304;9.816;2024-02-23T10:57:35;2.50;;;1.40;;
545;SDS011;259;53.304;9.816;2024-02-23T11:00:02;1.20;;;0.80;;
545;SDS011;259;53.304;9.816;2024-02-23T11:02:35;3.73;;;1.17;;
545;SDS011;259;53.304;9.816;2024-02-23T11:05:06;3.37;;;1.10;;
545;SDS011;259;53.304;9.816;2024-02-23T11:07:37;3.83;;;1.03;;
545;SDS011;259;53.304;9.816;2024-02-23T11:10:05;2.10;;;1.33;;
545;SDS011;259;53.304;9.816;2024-02-23T11:12:31;4.00;;;1.03;;
545;SDS011;259;53.304;9.816;2024-02-23T11:15:00;3.60;;;1.20;;
545;SDS011;259;53.304;9.816;2024-02-23T11:17:30;1.53;;;0.80;;
545;SDS011;259;53.304;9.816;2024-02-23T11:19:57;3.43;;;1.33;;
545;SDS011;259;53.304;9.816;2024-02-23T11:22:27;2.40;;;1.20;;
545;SDS011;259;53.304;9.816;2024-02-23T11:25:01;1.67;;;0.90;;
545;SDS011;259;53.304;9.816;2024-02-23T11:27:30;0.93;;;0.80;;
545;SDS011;259;53.304;9.816;2024-02-23T11:30:02;1.73;;;0.83;;
545;SDS011;259;53.304;9.816;2024-02-23T11:32:38;5.50;;;1.03;;
545;SDS011;259;53.304;9.816;2024-02-23T11:35:06;4.80;;;1.03;;
545;SDS011;259;53.304;9.816;2024-02-23T11:37:43;10.23;;;1.70;;
545;SDS011;259;53.304;9.816;2024-02-23T11:40:30;3.40;;;1.00;;
545;SDS011;259;53.304;9.816;2024-02-23T11:42:56;1.90;;;0.90;;
545;SDS011;259;53.304;9.816;2024-02-23T11:45:24;13.07;;;1.50;;
545;SDS011;259;53.304;9.816;2024-02-23T11:47:50;6.60;;;1.43;;
545;SDS011;259;53.304;9.816;2024-02-23T11:50:16;1.70;;;0.90;;
545;SDS011;259;53.304;9.816;2024-02-23T11:52:45;3.73;;;0.90;;
545;SDS011;259;53.304;9.816;2024-02-23T11:55:12;8.00;;;1.30;;
545;SDS011;259;53.304;9.816;2024-02-23T11:57:39;4.63;;;1.20;;
545;SDS011;259;53.304;9.816;2024-02-23T12:00:05;2.77;;;1.20;;
545;SDS011;259;53.304;9.816;2024-02-23T12:02:32;7.87;;;1.57;;
545;SDS011;259;53.304;9.816;2024-02-23T12:05:00;14.90;;;1.90;;
545;SDS011;259;53.304;9.816;2024-02-23T12:07:26;10.33;;;2.03;;
545;SDS011;259;53.304;9.816;2024-02-23T12:09:54;4.60;;;1.50;;
545;SDS011;259;53.304;9.816;2024-02-23T12:12:21;3.93;;;1.70;;
545;SDS011;259;53.304;9.816;2024-02-23T12:14:47;5.67;;;1.20;;
545;SDS011;259;53.304;9.816;2024-02-23T12:17:13;4.20;;;1.57;;
545;SDS011;259;53.304;9.816;2024-02-23T12:19:39;4.50;;;1.57;;
545;SDS011;259;53.304;9.816;2024-02-23T12:22:05;11.10;;;1.77;;
545;SDS011;259;53.304;9.816;2024-02-23T12:24:31;2.70;;;1.00;;
545;SDS011;259;53.304;9.816;2024-02-23T12:26:57;3.73;;;1.17;;
545;SDS011;259;53.304;9.816;2024-02-23T12:29:23;5.70;;;1.40;;
545;SDS011;259;53.304;9.816;2024-02-23T12:31:49;6.27;;;1.70;;
545;SDS011;259;53.304;9.816;2024-02-23T12:34:14;4.87;;;1.10;;
545;SDS011;259;53.304;9.816;2024-02-23T12:36:41;5.47;;;1.00;;
545;SDS011;259;53.304;9.816;2024-02-23T12:39:07;3.10;;;1.00;;
545;SDS011;259;53.304;9.816;2024-02-23T12:41:33;4.47;;;1.53;;
545;SDS011;259;53.304;9.816;2024-02-23T12:43:59;2.93;;;1.23;;
545;SDS011;259;53.304;9.816;2024-02-23T12:46:25;2.47;;;1.00;;
545;SDS011;259;53.304;9.816;2024-02-23T12:48:50;6.00;;;1.67;;
545;SDS011;259;53.304;9.816;2024-02-23T12:51:16;3.47;;;1.00;;
545;SDS011;259;53.304;9.816;2024-02-23T12:53:43;3.17;;;0.97;;
545;SDS011;259;53.304;9.816;2024-02-23T12:58:40;5.90;;;2.20;;
545;SDS011;259;53.304;9.816;2024-02-23T13:01:08;5.90;;;1.10;;
545;SDS011;259;53.304;9.816;2024-02-23T13:03:35;3.00;;;0.97;;
545;SDS011;259;53.304;9.816;2024-02-23T13:06:03;1.07;;;0.83;;
545;SDS011;259;53.304;9.816;2024-02-23T13:08:29;1.87;;;0.90;;
545;SDS011;259;53.304;9.816;2024-02-23T13:10:56;3.13;;;1.00;;
545;SDS011;259;53.304;9.816;2024-02-23T13:13:22;1.63;;;0.80;;
545;SDS011;259;53.304;9.816;2024-02-23T13:15:48;1.00;;;0.70;;
545;SDS011;259;53.304;9.816;2024-02-23T13:18:15;2.80;;;0.87;;
545;SDS011;259;53.304;9.816;2024-02-23T13:20:41;1.90;;;0.70;;
545;SDS011;259;53.304;9.816;2024-02-23T13:23:08;3.03;;;0.90;;
545;SDS011;259;53.304;9.816;2024-02-23T13:25:35;2.30;;;0.70;;
545;SDS011;259;53.304;9.816;2024-02-23T13:28:01;1.47;;;0.70;;
545;SDS011;259;53.304;9.816;2024-02-23T13:30:27;2.80;;;0.67;;
545;SDS011;259;53.304;9.816;2024-02-23T13:32:53;0.70;;;0.50;;
545;SDS011;259;53.304;9.816;2024-02-23T13:35:19;0.90;;;0.60;;
545;SDS011;259;53.304;9.816;2024-02-23T13:37:45;0.97;;;0.87;;
545;SDS011;259;53.304;9.816;2024-02-23T13:40:11;0.97;;;0.63;;
545;SDS011;259;53.304;9.816;2024-02-23T13:42:39;1.57;;;0.70;;
545;SDS011;259;53.304;9.816;2024-02-23T13:45:06;1.80;;;0.70;;
545;SDS011;259;53.304;9.816;2024-02-23T13:47:33;1.80;;;0.73;;
545;SDS011;259;53.304;9.816;2024-02-23T13:50:00;0.60;;;0.50;;
545;SDS011;259;53.304;9.816;2024-02-23T13:52:29;1.73;;;0.70;;
545;SDS011;259;53.304;9.816;2024-02-23T13:54:55;1.50;;;0.73;;
545;SDS011;259;53.304;9.816;2024-02-23T13:57:20;0.80;;;0.70;;
545;SDS011;259;53.304;9.816;2024-02-23T13:59:46;1.20;;;0.63;;
545;SDS011;259;53.304;9.816;2024-02-23T14:02:12;1.30;;;0.67;;
545;SDS011;259;53.304;9.816;2024-02-23T14:04:39;0.83;;;0.57;;
545;SDS011;259;53.304;9.816;2024-02-23T14:07:05;1.23;;;0.90;;
545;SDS011;259;53.304;9.816;2024-02-23T14:09:32;1.50;;;0.67;;
545;SDS011;259;53.304;9.816;2024-02-23T14:11:58;2.13;;;0.90;;
545;SDS011;259;53.304;9.816;2024-02-23T14:14:23;1.53;;;0.90;;
545;SDS011;259;53.304;9.816;2024-02-23T14:16:49;1.00;;;0.60;;
545;SDS011;259;53.304;9.816;2024-02-23T14:19:15;0.80;;;0.50;;
545;SDS011;259;53.304;9.816;2024-02-23T14:21:41;1.77;;;0.70;;
545;SDS011;259;53.304;9.816;2024-02-23T14:24:07;0.90;;;0.60;;
545;SDS011;259;53.304;9.816;2024-02-23T14:26:32;3.00;;;1.53;;
545;SDS011;259;53.304;9.816;2024-02-23T14:28:59;12.33;;;4.87;;
545;SDS011;259;53.304;9.816;2024-02-23T14:31:25;11.73;;;4.47;;
545;SDS011;259;53.304;9.816;2024-02-23T14:33:50;4.50;;;3.20;;
545;SDS011;259;53.304;9.816;2024-02-23T14:36:17;8.17;;;2.47;;
545;SDS011;259;53.304;9.816;2024-02-23T14:38:43;8.27;;;2.87;;
545;SDS011;259;53.304;9.816;2024-02-23T14:41:09;14.70;;;13.40;;
545;SDS011;259;53.304;9.816;2024-02-23T14:43:36;8.83;;;8.10;;
545;SDS011;259;53.304;9.816;2024-02-23T14:46:02;6.23;;;4.90;;
545;SDS011;259;53.304;9.816;2024-02-23T14:48:30;9.10;;;5.13;;
545;SDS011;259;53.304;9.816;2024-02-23T14:50:55;10.47;;;6.53;;
545;SDS011;259;53.304;9.816;2024-02-23T14:53:22;7.00;;;5.93;;
545;SDS011;259;53.304;9.816;2024-02-23T14:55:49;9.03;;;5.80;;
545;SDS011;259;53.304;9.816;2024-02-23T14:58:14;5.83;;;5.23;;
545;SDS011;259;53.304;9.816;2024-02-23T15:00:40;5.03;;;4.53;;
545;SDS011;259;53.304;9.816;2024-02-23T15:03:06;5.43;;;4.77;;
545;SDS011;259;53.304;9.816;2024-02-23T15:05:33;6.97;;;4.57;;
545;SDS011;259;53.304;9.816;2024-02-23T15:07:59;5.33;;;4.70;;
545;SDS011;259;53.304;9.816;2024-02-23T15:10:25;5.10;;;4.60;;
545;SDS011;259;53.304;9.816;2024-02-23T15:12:52;5.93;;;4.00;;
545;SDS011;259;53.304;9.816;2024-02-23T15:15:18;4.10;;;3.80;;
545;SDS011;259;53.304;9.816;2024-02-23T15:17:45;7.37;;;3.60;;
545;SDS011;259;53.304;9.816;2024-02-23T15:20:12;5.17;;;3.57;;
545;SDS011;259;53.304;9.816;2024-02-23T15:22:38;13.57;;;3.70;;
545;SDS011;259;53.304;9.816;2024-02-23T15:25:07;5.80;;;3.80;;
545;SDS011;259;53.304;9.816;2024-02-23T15:27:34;4.63;;;3.17;;
545;SDS011;259;53.304;9.816;2024-02-23T15:30:01;3.90;;;3.27;;
545;SDS011;259;53.304;9.816;2024-02-23T15:32:26;4.40;;;2.93;;
545;SDS011;259;53.304;9.816;2024-02-23T15:34:52;9.03;;;3.17;;
545;SDS011;259;53.304;9.816;2024-02-23T15:37:18;7.07;;;2.83;;
545;SDS011;259;53.304;9.816;2024-02-23T15:39:43;6.70;;;3.50;;
545;SDS011;259;53.304;9.816;2024-02-23T15:42:10;5.00;;;2.97;;